sensor_id;sensor_type;location;lat;lon;timestamp;P1;durP1;ratioP1;P2;durP2;ratioP2
2620;SDS011;1320;48.128;11.592;2022-07-23T00:02:05;11.30;;;6.60;;
2620;SDS011;1320;48.128;11.592;2022-07-23T00:04:31;11.20;;;6.80;;
2620;SDS011;1320;48.128;11.592;2022-07-23T00:06:58;12.33;;;6.87;;
2620;SDS011;1320;48.128;11.592;2022-07-23T00:09:23;13.30;;;7.10;;
2620;SDS011;1320;48.128;11.592;2022-07-23T00:11:49;12.27;;;7.20;;
2620;SDS011;1320;48.128;11.592;2022-07-23T00:14:15;12.30;;;6.63;;
2620;SDS011;1320;48.128;11.592;2022-07-23T00:16:41;12.17;;;6.80;;
2620;SDS011;1320;48.128;11.592;2022-07-23T00:19:06;12.07;;;6.70;;
2620;SDS011;1320;48.128;11.592;2022-07-23T00:21:32;12.27;;;7.73;;
2620;SDS011;1320;48.128;11.592;2022-07-23T00:23:57;11.20;;;6.43;;
2620;SDS011;1320;48.128;11.592;2022-07-23T00:26:23;9.70;;;6.03;;
2620;SDS011;1320;48.128;11.592;2022-07-23T00:28:49;11.33;;;6.80;;
2620;SDS011;1320;48.128;11.592;2022-07-23T00:31:14;11.00;;;6.83;;
2620;SDS011;1320;48.128;11.592;2022-07-23T00:33:40;10.37;;;6.40;;
2620;SDS011;1320;48.128;11.592;2022-07-23T00:36:06;10.80;;;6.17;;
2620;SDS011;1320;48.128;11.592;2022-07-23T00:38:32;12.30;;;7.10;;
2620;SDS011;1320;48.128;11.592;2022-07-23T00:40:58;10.77;;;5.83;;
2620;SDS011;1320;48.128;11.592;2022-07-23T00:43:23;11.07;;;6.77;;
2620;SDS011;1320;48.128;11.592;2022-07-23T00:45:50;10.57;;;6.57;;
2620;SDS011;1320;48.128;11.592;2022-07-23T00:48:15;11.60;;;7.63;;
2620;SDS011;1320;48.128;11.592;2022-07-23T00:50:42;11.93;;;7.63;;
2620;SDS011;1320;48.128;11.592;2022-07-23T00:53:08;10.13;;;6.00;;
2620;SDS011;1320;48.128;11.592;2022-07-23T00:55:34;12.03;;;6.17;;
2620;SDS011;1320;48.128;11.592;2022-07-23T00:58:00;11.70;;;7.63;;
2620;SDS011;1320;48.128;11.592;2022-07-23T01:00:27;10.60;;;6.83;;
2620;SDS011;1320;48.128;11.592;2022-07-23T01:02:53;12.20;;;7.43;;
2620;SDS011;1320;48.128;11.592;2022-07-23T01:05:19;11.80;;;6.70;;
2620;SDS011;1320;48.128;11.592;2022-07-23T01:07:47;9.40;;;6.13;;
2620;SDS011;1320;48.128;11.592;2022-07-23T01:10:14;12.80;;;7.10;;
2620;SDS011;1320;48.128;11.592;2022-07-23T01:12:56;12.67;;;8.20;;
2620;SDS011;1320;48.128;11.592;2022-07-23T01:15:22;12.83;;;7.90;;
2620;SDS011;1320;48.128;11.592;2022-07-23T01:17:48;12.27;;;7.93;;
2620;SDS011;1320;48.128;11.592;2022-07-23T01:20:14;12.90;;;6.80;;
2620;SDS011;1320;48.128;11.592;2022-07-23T01:22:40;12.40;;;7.80;;
2620;SDS011;1320;48.128;11.592;2022-07-23T01:25:06;15.33;;;11.10;;
2620;SDS011;1320;48.128;11.592;2022-07-23T01:27:32;17.87;;;9.23;;
2620;SDS011;1320;48.128;11.592;2022-07-23T01:29:59;15.73;;;8.97;;
2620;SDS011;1320;48.128;11.592;2022-07-23T01:32:25;15.73;;;10.17;;
2620;SDS011;1320;48.128;11.592;2022-07-23T01:34:50;13.20;;;8.90;;
2620;SDS011;1320;48.128;11.592;2022-07-23T01:37:16;12.70;;;10.67;;
2620;SDS011;1320;48.128;11.592;2022-07-23T01:39:42;14.83;;;8.20;;
2620;SDS011;1320;48.128;11.592;2022-07-23T01:42:07;12.00;;;7.20;;
2620;SDS011;1320;48.128;11.592;2022-07-23T01:44:33;12.00;;;6.67;;
2620;SDS011;1320;48.128;11.592;2022-07-23T01:46:59;9.73;;;4.90;;
2620;SDS011;1320;48.128;11.592;2022-07-23T01:49:25;10.70;;;7.23;;
2620;SDS011;1320;48.128;11.592;2022-07-23T01:51:50;10.67;;;5.80;;
2620;SDS011;1320;48.128;11.592;2022-07-23T01:54:31;12.83;;;6.53;;
2620;SDS011;1320;48.128;11.592;2022-07-23T01:56:59;15.10;;;6.77;;
2620;SDS011;1320;48.128;11.592;2022-07-23T01:59:25;11.40;;;6.73;;
2620;SDS011;1320;48.128;11.592;2022-07-23T02:01:52;12.50;;;6.93;;
2620;SDS011;1320;48.128;11.592;2022-07-23T02:04:18;12.03;;;7.30;;
2620;SDS011;1320;48.128;11.592;2022-07-23T02:06:47;10.20;;;6.57;;
2620;SDS011;1320;48.128;11.592;2022-07-23T02:09:13;14.13;;;6.70;;
2620;SDS011;1320;48.128;11.592;2022-07-23T02:11:39;11.20;;;6.30;;
2620;SDS011;1320;48.128;11.592;2022-07-23T02:14:05;16.90;;;7.70;;
2620;SDS011;1320;48.128;11.592;2022-07-23T02:16:31;14.20;;;7.93;;
2620;SDS011;1320;48.128;11.592;2022-07-23T02:18:57;12.50;;;6.97;;
2620;SDS011;1320;48.128;11.592;2022-07-23T02:21:22;12.63;;;7.90;;
2620;SDS011;1320;48.128;11.592;2022-07-23T02:23:48;11.20;;;7.03;;
2620;SDS011;1320;48.128;11.592;2022-07-23T02:26:14;10.80;;;6.60;;
2620;SDS011;1320;48.128;11.592;2022-07-23T02:28:40;11.90;;;8.07;;
2620;SDS011;1320;48.128;11.592;2022-07-23T02:31:06;11.60;;;7.53;;
2620;SDS011;1320;48.128;11.592;2022-07-23T02:33:32;11.20;;;7.10;;
2620;SDS011;1320;48.128;11.592;2022-07-23T02:35:58;11.27;;;7.10;;
2620;SDS011;1320;48.128;11.592;2022-07-23T02:38:25;12.53;;;6.47;;
2620;SDS011;1320;48.128;11.592;2022-07-23T02:40:51;10.73;;;6.93;;
2620;SDS011;1320;48.128;11.592;2022-07-23T02:43:16;10.23;;;7.20;;
2620;SDS011;1320;48.128;11.592;2022-07-23T02:45:42;12.27;;;7.00;;
2620;SDS011;1320;48.128;11.592;2022-07-23T02:48:08;12.73;;;5.37;;
2620;SDS011;1320;48.128;11.592;2022-07-23T02:50:34;10.60;;;5.67;;
2620;SDS011;1320;48.128;11.592;2022-07-23T02:52:59;10.87;;;5.33;;
2620;SDS011;1320;48.128;11.592;2022-07-23T02:55:25;11.57;;;5.70;;
2620;SDS011;1320;48.128;11.592;2022-07-23T02:57:51;10.47;;;5.73;;
2620;SDS011;1320;48.128;11.592;2022-07-23T03:00:17;10.43;;;4.90;;
2620;SDS011;1320;48.128;11.592;2022-07-23T03:02:43;11.33;;;6.70;;
2620;SDS011;1320;48.128;11.592;2022-07-23T03:05:09;9.50;;;4.47;;
2620;SDS011;1320;48.128;11.592;2022-07-23T03:07:35;11.10;;;5.20;;
2620;SDS011;1320;48.128;11.592;2022-07-23T03:10:00;10.53;;;5.17;;
2620;SDS011;1320;48.128;11.592;2022-07-23T03:12:26;11.30;;;5.60;;
2620;SDS011;1320;48.128;11.592;2022-07-23T03:14:52;11.87;;;5.03;;
2620;SDS011;1320;48.128;11.592;2022-07-23T03:17:18;12.87;;;6.30;;
2620;SDS011;1320;48.128;11.592;2022-07-23T03:19:43;12.23;;;5.80;;
2620;SDS011;1320;48.128;11.592;2022-07-23T03:22:09;11.90;;;5.80;;
2620;SDS011;1320;48.128;11.592;2022-07-23T03:24:35;14.33;;;6.80;;
2620;SDS011;1320;48.128;11.592;2022-07-23T03:27:20;11.70;;;6.03;;
2620;SDS011;1320;48.128;11.592;2022-07-23T03:29:46;14.07;;;7.37;;
2620;SDS011;1320;48.128;11.592;2022-07-23T03:32:12;12.47;;;6.97;;
2620;SDS011;1320;48.128;11.592;2022-07-23T03:34:38;13.50;;;8.73;;
2620;SDS011;1320;48.128;11.592;2022-07-23T03:37:03;12.20;;;7.10;;
2620;SDS011;1320;48.128;11.592;2022-07-23T03:39:29;18.13;;;7.00;;
2620;SDS011;1320;48.128;11.592;2022-07-23T03:41:55;13.23;;;7.87;;
2620;SDS011;1320;48.128;11.592;2022-07-23T03:44:21;12.27;;;7.50;;
2620;SDS011;1320;48.128;11.592;2022-07-23T03:46:47;15.90;;;9.30;;
2620;SDS011;1320;48.128;11.592;2022-07-23T03:49:12;13.40;;;7.83;;
2620;SDS011;1320;48.128;11.592;2022-07-23T03:51:38;12.97;;;7.00;;
2620;SDS011;1320;48.128;11.592;2022-07-23T03:54:04;13.93;;;7.90;;
2620;SDS011;1320;48.128;11.592;2022-07-23T03:56:29;13.60;;;7.83;;
2620;SDS011;1320;48.128;11.592;2022-07-23T03:58:55;13.70;;;7.70;;
2620;SDS011;1320;48.128;11.592;2022-07-23T04:01:21;13.07;;;8.67;;
2620;SDS011;1320;48.128;11.592;2022-07-23T04:03:47;14.90;;;7.53;;
2620;SDS011;1320;48.128;11.592;2022-07-23T04:06:13;13.83;;;7.70;;
2620;SDS011;1320;48.128;11.592;2022-07-23T04:08:38;12.90;;;7.30;;
2620;SDS011;1320;48.128;11.592;2022-07-23T04:11:04;12.70;;;7.10;;
2620;SDS011;1320;48.128;11.592;2022-07-23T04:13:30;13.50;;;8.23;;
2620;SDS011;1320;48.128;11.592;2022-07-23T04:15:57;13.67;;;7.10;;
2620;SDS011;1320;48.128;11.592;2022-07-23T04:18:23;12.63;;;6.97;;
2620;SDS011;1320;48.128;11.592;2022-07-23T04:20:50;14.13;;;7.10;;
2620;SDS011;1320;48.128;11.592;2022-07-23T04:23:16;14.60;;;7.20;;
2620;SDS011;1320;48.128;11.592;2022-07-23T04:25:42;16.30;;;7.67;;
2620;SDS011;1320;48.128;11.592;2022-07-23T04:28:08;13.37;;;6.20;;
2620;SDS011;1320;48.128;11.592;2022-07-23T04:30:34;15.90;;;9.37;;
2620;SDS011;1320;48.128;11.592;2022-07-23T04:33:00;17.40;;;8.80;;
2620;SDS011;1320;48.128;11.592;2022-07-23T04:35:26;14.37;;;8.00;;
2620;SDS011;1320;48.128;11.592;2022-07-23T04:37:52;13.97;;;6.47;;
2620;SDS011;1320;48.128;11.592;2022-07-23T04:40:17;12.80;;;6.40;;
2620;SDS011;1320;48.128;11.592;2022-07-23T04:42:43;12.80;;;8.27;;
2620;SDS011;1320;48.128;11.592;2022-07-23T04:45:09;11.60;;;7.00;;
2620;SDS011;1320;48.128;11.592;2022-07-23T04:47:35;12.40;;;6.90;;
2620;SDS011;1320;48.128;11.592;2022-07-23T04:50:00;12.87;;;7.70;;
2620;SDS011;1320;48.128;11.592;2022-07-23T04:52:26;14.30;;;6.50;;
2620;SDS011;1320;48.128;11.592;2022-07-23T04:54:52;13.73;;;7.07;;
2620;SDS011;1320;48.128;11.592;2022-07-23T04:57:17;17.63;;;6.93;;
2620;SDS011;1320;48.128;11.592;2022-07-23T04:59:43;14.20;;;7.37;;
2620;SDS011;1320;48.128;11.592;2022-07-23T05:02:09;14.27;;;8.10;;
2620;SDS011;1320;48.128;11.592;2022-07-23T05:04:34;12.73;;;7.40;;
2620;SDS011;1320;48.128;11.592;2022-07-23T05:07:00;14.37;;;7.20;;
2620;SDS011;1320;48.128;11.592;2022-07-23T05:09:25;13.87;;;8.50;;
2620;SDS011;1320;48.128;11.592;2022-07-23T05:11:51;13.00;;;8.73;;
2620;SDS011;1320;48.128;11.592;2022-07-23T05:14:17;14.73;;;8.10;;
2620;SDS011;1320;48.128;11.592;2022-07-23T05:16:43;15.07;;;8.20;;
2620;SDS011;1320;48.128;11.592;2022-07-23T05:19:08;14.40;;;7.03;;
2620;SDS011;1320;48.128;11.592;2022-07-23T05:21:34;11.97;;;7.30;;
2620;SDS011;1320;48.128;11.592;2022-07-23T05:24:00;12.90;;;6.97;;
2620;SDS011;1320;48.128;11.592;2022-07-23T05:26:26;13.97;;;8.10;;
2620;SDS011;1320;48.128;11.592;2022-07-23T05:28:51;11.23;;;6.70;;
2620;SDS011;1320;48.128;11.592;2022-07-23T05:31:17;13.03;;;7.07;;
2620;SDS011;1320;48.128;11.592;2022-07-23T05:33:43;11.17;;;6.30;;
2620;SDS011;1320;48.128;11.592;2022-07-23T05:36:09;15.30;;;8.17;;
2620;SDS011;1320;48.128;11.592;2022-07-23T05:38:34;12.90;;;7.00;;
2620;SDS011;1320;48.128;11.592;2022-07-23T05:41:00;14.70;;;8.23;;
2620;SDS011;1320;48.128;11.592;2022-07-23T05:43:26;13.73;;;8.70;;
2620;SDS011;1320;48.128;11.592;2022-07-23T05:45:52;11.80;;;7.60;;
2620;SDS011;1320;48.128;11.592;2022-07-23T05:48:18;13.20;;;7.47;;
2620;SDS011;1320;48.128;11.592;2022-07-23T05:50:45;15.73;;;7.33;;
2620;SDS011;1320;48.128;11.592;2022-07-23T05:53:11;12.00;;;6.90;;
2620;SDS011;1320;48.128;11.592;2022-07-23T05:55:36;12.57;;;7.70;;
2620;SDS011;1320;48.128;11.592;2022-07-23T05:58:02;12.80;;;8.40;;
2620;SDS011;1320;48.128;11.592;2022-07-23T06:00:29;11.93;;;6.73;;
2620;SDS011;1320;48.128;11.592;2022-07-23T06:02:56;12.60;;;8.80;;
2620;SDS011;1320;48.128;11.592;2022-07-23T06:05:22;14.10;;;7.40;;
2620;SDS011;1320;48.128;11.592;2022-07-23T06:07:48;12.40;;;7.40;;
2620;SDS011;1320;48.128;11.592;2022-07-23T06:10:14;13.90;;;7.40;;
2620;SDS011;1320;48.128;11.592;2022-07-23T06:12:40;15.43;;;8.87;;
2620;SDS011;1320;48.128;11.592;2022-07-23T06:15:06;14.57;;;8.47;;
2620;SDS011;1320;48.128;11.592;2022-07-23T06:17:32;14.53;;;9.73;;
2620;SDS011;1320;48.128;11.592;2022-07-23T06:19:58;14.77;;;8.90;;
2620;SDS011;1320;48.128;11.592;2022-07-23T06:22:24;13.80;;;7.73;;
2620;SDS011;1320;48.128;11.592;2022-07-23T06:24:50;15.03;;;8.80;;
2620;SDS011;1320;48.128;11.592;2022-07-23T06:27:18;13.87;;;8.43;;
2620;SDS011;1320;48.128;11.592;2022-07-23T06:29:44;16.73;;;8.87;;
2620;SDS011;1320;48.128;11.592;2022-07-23T06:32:11;15.47;;;10.50;;
2620;SDS011;1320;48.128;11.592;2022-07-23T06:34:36;13.90;;;8.80;;
2620;SDS011;1320;48.128;11.592;2022-07-23T06:37:02;15.87;;;8.70;;
2620;SDS011;1320;48.128;11.592;2022-07-23T06:39:28;15.60;;;10.03;;
2620;SDS011;1320;48.128;11.592;2022-07-23T06:41:53;14.27;;;9.20;;
2620;SDS011;1320;48.128;11.592;2022-07-23T06:44:19;14.60;;;8.43;;
2620;SDS011;1320;48.128;11.592;2022-07-23T06:46:45;16.20;;;9.90;;
2620;SDS011;1320;48.128;11.592;2022-07-23T06:49:10;14.63;;;8.30;;
2620;SDS011;1320;48.128;11.592;2022-07-23T06:51:36;16.10;;;9.20;;
2620;SDS011;1320;48.128;11.592;2022-07-23T06:54:02;15.07;;;8.10;;
2620;SDS011;1320;48.128;11.592;2022-07-23T06:56:28;16.20;;;8.43;;
2620;SDS011;1320;48.128;11.592;2022-07-23T06:58:54;15.10;;;7.90;;
2620;SDS011;1320;48.128;11.592;2022-07-23T07:01:19;12.67;;;8.73;;
2620;SDS011;1320;48.128;11.592;2022-07-23T07:03:46;15.63;;;8.00;;
2620;SDS011;1320;48.128;11.592;2022-07-23T07:06:12;12.80;;;8.97;;
2620;SDS011;1320;48.128;11.592;2022-07-23T07:08:38;13.60;;;8.87;;
2620;SDS011;1320;48.128;11.592;2022-07-23T07:11:04;13.10;;;8.63;;
2620;SDS011;1320;48.128;11.592;2022-07-23T07:13:29;13.80;;;8.20;;
2620;SDS011;1320;48.128;11.592;2022-07-23T07:15:55;13.27;;;8.50;;
2620;SDS011;1320;48.128;11.592;2022-07-23T07:18:21;13.90;;;8.03;;
2620;SDS011;1320;48.128;11.592;2022-07-23T07:20:46;12.73;;;7.73;;
2620;SDS011;1320;48.128;11.592;2022-07-23T07:23:12;12.07;;;8.60;;
2620;SDS011;1320;48.128;11.592;2022-07-23T07:25:38;14.67;;;9.10;;
2620;SDS011;1320;48.128;11.592;2022-07-23T07:28:04;21.90;;;10.83;;
2620;SDS011;1320;48.128;11.592;2022-07-23T07:30:29;14.20;;;7.67;;
2620;SDS011;1320;48.128;11.592;2022-07-23T07:32:55;14.80;;;9.20;;
2620;SDS011;1320;48.128;11.592;2022-07-23T07:35:21;16.90;;;9.03;;
2620;SDS011;1320;48.128;11.592;2022-07-23T07:37:46;14.40;;;8.70;;
2620;SDS011;1320;48.128;11.592;2022-07-23T07:40:12;15.27;;;8.50;;
2620;SDS011;1320;48.128;11.592;2022-07-23T07:42:56;14.10;;;8.33;;
2620;SDS011;1320;48.128;11.592;2022-07-23T07:45:22;15.40;;;9.40;;
2620;SDS011;1320;48.128;11.592;2022-07-23T07:47:48;14.17;;;8.33;;
2620;SDS011;1320;48.128;11.592;2022-07-23T07:50:15;13.33;;;7.93;;
2620;SDS011;1320;48.128;11.592;2022-07-23T07:52:41;15.47;;;11.00;;
2620;SDS011;1320;48.128;11.592;2022-07-23T07:55:08;15.47;;;9.90;;
2620;SDS011;1320;48.128;11.592;2022-07-23T07:57:34;15.10;;;9.30;;
2620;SDS011;1320;48.128;11.592;2022-07-23T08:00:01;14.50;;;9.37;;
2620;SDS011;1320;48.128;11.592;2022-07-23T08:02:28;15.57;;;8.00;;
2620;SDS011;1320;48.128;11.592;2022-07-23T08:04:53;17.87;;;15.97;;
2620;SDS011;1320;48.128;11.592;2022-07-23T08:07:21;14.47;;;11.30;;
2620;SDS011;1320;48.128;11.592;2022-07-23T08:09:46;14.20;;;9.13;;
2620;SDS011;1320;48.128;11.592;2022-07-23T08:12:12;14.07;;;10.50;;
2620;SDS011;1320;48.128;11.592;2022-07-23T08:14:38;17.13;;;10.37;;
2620;SDS011;1320;48.128;11.592;2022-07-23T08:17:03;13.40;;;8.70;;
2620;SDS011;1320;48.128;11.592;2022-07-23T08:19:29;15.03;;;9.27;;
2620;SDS011;1320;48.128;11.592;2022-07-23T08:21:54;16.63;;;9.40;;
2620;SDS011;1320;48.128;11.592;2022-07-23T08:24:20;15.60;;;9.87;;
2620;SDS011;1320;48.128;11.592;2022-07-23T08:26:47;15.63;;;9.13;;
2620;SDS011;1320;48.128;11.592;2022-07-23T08:29:12;17.47;;;9.70;;
2620;SDS011;1320;48.128;11.592;2022-07-23T08:31:38;14.40;;;11.43;;
2620;SDS011;1320;48.128;11.592;2022-07-23T08:34:05;13.00;;;8.13;;
2620;SDS011;1320;48.128;11.592;2022-07-23T08:36:30;14.30;;;8.67;;
2620;SDS011;1320;48.128;11.592;2022-07-23T08:38:57;13.77;;;9.03;;
2620;SDS011;1320;48.128;11.592;2022-07-23T08:41:24;14.83;;;9.50;;
2620;SDS011;1320;48.128;11.592;2022-07-23T08:43:50;15.10;;;8.50;;
2620;SDS011;1320;48.128;11.592;2022-07-23T08:46:17;13.77;;;9.10;;
2620;SDS011;1320;48.128;11.592;2022-07-23T08:48:44;14.20;;;9.20;;
2620;SDS011;1320;48.128;11.592;2022-07-23T08:51:14;14.17;;;7.40;;
2620;SDS011;1320;48.128;11.592;2022-07-23T08:53:39;13.17;;;8.30;;
2620;SDS011;1320;48.128;11.592;2022-07-23T08:56:06;14.20;;;7.83;;
2620;SDS011;1320;48.128;11.592;2022-07-23T08:58:33;13.47;;;8.97;;
2620;SDS011;1320;48.128;11.592;2022-07-23T09:00:59;12.37;;;8.20;;
2620;SDS011;1320;48.128;11.592;2022-07-23T09:03:26;14.53;;;9.70;;
2620;SDS011;1320;48.128;11.592;2022-07-23T09:05:52;14.27;;;9.23;;
2620;SDS011;1320;48.128;11.592;2022-07-23T09:08:24;18.23;;;7.73;;
2620;SDS011;1320;48.128;11.592;2022-07-23T09:10:58;14.37;;;7.90;;
2620;SDS011;1320;48.128;11.592;2022-07-23T09:16:11;13.53;;;8.07;;
2620;SDS011;1320;48.128;11.592;2022-07-23T09:18:54;13.00;;;10.10;;
2620;SDS011;1320;48.128;11.592;2022-07-23T09:21:29;13.70;;;9.20;;
2620;SDS011;1320;48.128;11.592;2022-07-23T09:24:04;13.80;;;9.17;;
2620;SDS011;1320;48.128;11.592;2022-07-23T09:31:54;14.23;;;9.47;;
2620;SDS011;1320;48.128;11.592;2022-07-23T09:36:46;12.50;;;8.60;;
2620;SDS011;1320;48.128;11.592;2022-07-23T09:39:13;13.70;;;10.50;;
2620;SDS011;1320;48.128;11.592;2022-07-23T09:41:40;15.80;;;8.00;;
2620;SDS011;1320;48.128;11.592;2022-07-23T09:44:12;13.10;;;9.47;;
2620;SDS011;1320;48.128;11.592;2022-07-23T09:46:43;13.30;;;11.83;;
2620;SDS011;1320;48.128;11.592;2022-07-23T09:51:54;14.10;;;12.70;;
2620;SDS011;1320;48.128;11.592;2022-07-23T09:57:05;15.60;;;13.80;;
2620;SDS011;1320;48.128;11.592;2022-07-23T09:59:41;11.03;;;9.40;;
2620;SDS011;1320;48.128;11.592;2022-07-23T10:02:08;14.40;;;10.50;;
2620;SDS011;1320;48.128;11.592;2022-07-23T10:04:37;13.40;;;11.30;;
2620;SDS011;1320;48.128;11.592;2022-07-23T10:07:04;11.10;;;7.90;;
2620;SDS011;1320;48.128;11.592;2022-07-23T10:09:32;10.20;;;8.50;;
2620;SDS011;1320;48.128;11.592;2022-07-23T10:12:01;12.07;;;7.77;;
2620;SDS011;1320;48.128;11.592;2022-07-23T10:14:33;11.13;;;9.10;;
2620;SDS011;1320;48.128;11.592;2022-07-23T10:17:01;11.03;;;7.63;;
2620;SDS011;1320;48.128;11.592;2022-07-23T10:19:29;12.93;;;8.63;;
2620;SDS011;1320;48.128;11.592;2022-07-23T10:21:57;9.73;;;6.60;;
2620;SDS011;1320;48.128;11.592;2022-07-23T10:29:58;8.53;;;6.03;;
2620;SDS011;1320;48.128;11.592;2022-07-23T10:40:58;11.70;;;5.90;;
2620;SDS011;1320;48.128;11.592;2022-07-23T10:43:25;10.90;;;7.37;;
2620;SDS011;1320;48.128;11.592;2022-07-23T10:45:51;10.60;;;8.80;;
2620;SDS011;1320;48.128;11.592;2022-07-23T10:48:21;9.93;;;6.10;;
2620;SDS011;1320;48.128;11.592;2022-07-23T10:56:17;9.70;;;6.03;;
2620;SDS011;1320;48.128;11.592;2022-07-23T10:59:06;11.00;;;6.43;;
2620;SDS011;1320;48.128;11.592;2022-07-23T11:01:32;11.93;;;5.83;;
2620;SDS011;1320;48.128;11.592;2022-07-23T11:03:58;9.43;;;6.43;;
2620;SDS011;1320;48.128;11.592;2022-07-23T11:06:26;10.63;;;6.67;;
2620;SDS011;1320;48.128;11.592;2022-07-23T11:22:38;9.57;;;6.40;;
2620;SDS011;1320;48.128;11.592;2022-07-23T11:25:13;10.50;;;6.40;;
2620;SDS011;1320;48.128;11.592;2022-07-23T11:27:54;11.60;;;5.73;;
2620;SDS011;1320;48.128;11.592;2022-07-23T11:35:35;10.43;;;6.00;;
2620;SDS011;1320;48.128;11.592;2022-07-23T11:38:04;11.53;;;6.80;;
2620;SDS011;1320;48.128;11.592;2022-07-23T11:40:30;11.87;;;6.80;;
2620;SDS011;1320;48.128;11.592;2022-07-23T11:43:00;13.27;;;6.37;;
2620;SDS011;1320;48.128;11.592;2022-07-23T11:45:31;10.37;;;6.07;;
2620;SDS011;1320;48.128;11.592;2022-07-23T11:47:59;11.60;;;6.83;;
2620;SDS011;1320;48.128;11.592;2022-07-23T11:50:25;11.37;;;6.70;;
2620;SDS011;1320;48.128;11.592;2022-07-23T11:52:51;10.50;;;6.53;;
2620;SDS011;1320;48.128;11.592;2022-07-23T11:55:18;11.30;;;7.67;;
2620;SDS011;1320;48.128;11.592;2022-07-23T11:57:44;10.17;;;6.07;;
2620;SDS011;1320;48.128;11.592;2022-07-23T12:02:39;11.83;;;7.43;;
2620;SDS011;1320;48.128;11.592;2022-07-23T12:05:06;11.77;;;8.50;;
2620;SDS011;1320;48.128;11.592;2022-07-23T12:07:38;10.40;;;7.40;;
2620;SDS011;1320;48.128;11.592;2022-07-23T12:12:41;12.00;;;8.20;;
2620;SDS011;1320;48.128;11.592;2022-07-23T12:15:09;12.03;;;8.07;;
2620;SDS011;1320;48.128;11.592;2022-07-23T12:17:37;12.50;;;8.93;;
2620;SDS011;1320;48.128;11.592;2022-07-23T12:20:05;14.13;;;9.60;;
2620;SDS011;1320;48.128;11.592;2022-07-23T12:22:43;15.70;;;8.70;;
2620;SDS011;1320;48.128;11.592;2022-07-23T12:25:14;11.10;;;7.77;;
2620;SDS011;1320;48.128;11.592;2022-07-23T12:27:42;13.63;;;8.20;;
2620;SDS011;1320;48.128;11.592;2022-07-23T12:30:15;11.30;;;7.93;;
2620;SDS011;1320;48.128;11.592;2022-07-23T12:32:45;13.10;;;7.83;;
2620;SDS011;1320;48.128;11.592;2022-07-23T12:35:11;12.03;;;9.03;;
2620;SDS011;1320;48.128;11.592;2022-07-23T12:37:39;11.50;;;8.60;;
2620;SDS011;1320;48.128;11.592;2022-07-23T12:42:50;12.53;;;8.80;;
2620;SDS011;1320;48.128;11.592;2022-07-23T12:45:18;11.53;;;8.00;;
2620;SDS011;1320;48.128;11.592;2022-07-23T12:47:54;15.07;;;9.90;;
2620;SDS011;1320;48.128;11.592;2022-07-23T12:53:06;12.20;;;8.13;;
2620;SDS011;1320;48.128;11.592;2022-07-23T12:55:36;11.83;;;8.40;;
2620;SDS011;1320;48.128;11.592;2022-07-23T12:58:05;12.37;;;9.13;;
2620;SDS011;1320;48.128;11.592;2022-07-23T13:03:29;15.13;;;10.73;;
2620;SDS011;1320;48.128;11.592;2022-07-23T13:05:57;11.53;;;8.93;;
2620;SDS011;1320;48.128;11.592;2022-07-23T13:08:25;13.40;;;8.53;;
2620;SDS011;1320;48.128;11.592;2022-07-23T13:10:52;12.40;;;8.40;;
2620;SDS011;1320;48.128;11.592;2022-07-23T13:13:22;12.50;;;9.83;;
2620;SDS011;1320;48.128;11.592;2022-07-23T13:15:50;12.53;;;8.87;;
2620;SDS011;1320;48.128;11.592;2022-07-23T13:18:16;11.63;;;8.07;;
2620;SDS011;1320;48.128;11.592;2022-07-23T13:20:42;12.57;;;8.60;;
2620;SDS011;1320;48.128;11.592;2022-07-23T13:23:08;12.20;;;9.17;;
2620;SDS011;1320;48.128;11.592;2022-07-23T13:25:34;12.03;;;9.10;;
2620;SDS011;1320;48.128;11.592;2022-07-23T13:28:00;12.07;;;9.53;;
2620;SDS011;1320;48.128;11.592;2022-07-23T13:30:26;12.77;;;9.70;;
2620;SDS011;1320;48.128;11.592;2022-07-23T13:32:51;12.30;;;8.30;;
2620;SDS011;1320;48.128;11.592;2022-07-23T13:35:17;12.30;;;10.00;;
2620;SDS011;1320;48.128;11.592;2022-07-23T13:37:43;12.50;;;9.03;;
2620;SDS011;1320;48.128;11.592;2022-07-23T13:40:09;12.93;;;8.60;;
2620;SDS011;1320;48.128;11.592;2022-07-23T13:42:35;13.67;;;8.93;;
2620;SDS011;1320;48.128;11.592;2022-07-23T13:45:02;12.27;;;8.97;;
2620;SDS011;1320;48.128;11.592;2022-07-23T13:47:31;12.83;;;8.60;;
2620;SDS011;1320;48.128;11.592;2022-07-23T13:49:57;11.43;;;9.33;;
2620;SDS011;1320;48.128;11.592;2022-07-23T13:52:23;12.10;;;8.83;;
2620;SDS011;1320;48.128;11.592;2022-07-23T13:54:49;14.53;;;9.13;;
2620;SDS011;1320;48.128;11.592;2022-07-23T13:57:16;11.97;;;9.30;;
2620;SDS011;1320;48.128;11.592;2022-07-23T13:59:41;11.67;;;8.67;;
2620;SDS011;1320;48.128;11.592;2022-07-23T14:02:07;12.40;;;9.50;;
2620;SDS011;1320;48.128;11.592;2022-07-23T14:04:33;12.17;;;8.50;;
2620;SDS011;1320;48.128;11.592;2022-07-23T14:06:59;11.50;;;8.20;;
2620;SDS011;1320;48.128;11.592;2022-07-23T14:09:25;11.93;;;8.43;;
2620;SDS011;1320;48.128;11.592;2022-07-23T14:11:51;11.73;;;9.37;;
2620;SDS011;1320;48.128;11.592;2022-07-23T14:14:18;14.00;;;9.50;;
2620;SDS011;1320;48.128;11.592;2022-07-23T14:16:44;12.10;;;8.53;;
2620;SDS011;1320;48.128;11.592;2022-07-23T14:19:10;10.73;;;7.60;;
2620;SDS011;1320;48.128;11.592;2022-07-23T14:21:36;12.70;;;8.93;;
2620;SDS011;1320;48.128;11.592;2022-07-23T14:24:02;13.47;;;8.90;;
2620;SDS011;1320;48.128;11.592;2022-07-23T14:26:28;14.40;;;7.70;;
2620;SDS011;1320;48.128;11.592;2022-07-23T14:28:57;14.23;;;9.40;;
2620;SDS011;1320;48.128;11.592;2022-07-23T14:31:23;14.03;;;8.67;;
2620;SDS011;1320;48.128;11.592;2022-07-23T14:33:49;14.00;;;8.87;;
2620;SDS011;1320;48.128;11.592;2022-07-23T14:36:15;11.80;;;7.90;;
2620;SDS011;1320;48.128;11.592;2022-07-23T14:38:41;11.70;;;8.83;;
2620;SDS011;1320;48.128;11.592;2022-07-23T14:41:07;13.90;;;9.13;;
2620;SDS011;1320;48.128;11.592;2022-07-23T14:43:34;11.60;;;6.73;;
2620;SDS011;1320;48.128;11.592;2022-07-23T14:45:59;13.33;;;8.97;;
2620;SDS011;1320;48.128;11.592;2022-07-23T14:48:25;12.10;;;8.10;;
2620;SDS011;1320;48.128;11.592;2022-07-23T14:50:51;13.77;;;8.07;;
2620;SDS011;1320;48.128;11.592;2022-07-23T14:53:17;12.07;;;8.70;;
2620;SDS011;1320;48.128;11.592;2022-07-23T14:55:42;12.13;;;8.80;;
2620;SDS011;1320;48.128;11.592;2022-07-23T14:58:08;10.97;;;8.10;;
2620;SDS011;1320;48.128;11.592;2022-07-23T15:00:34;12.40;;;9.80;;
2620;SDS011;1320;48.128;11.592;2022-07-23T15:03:00;13.47;;;8.43;;
2620;SDS011;1320;48.128;11.592;2022-07-23T15:05:25;12.63;;;8.50;;
2620;SDS011;1320;48.128;11.592;2022-07-23T15:07:52;13.87;;;10.20;;
2620;SDS011;1320;48.128;11.592;2022-07-23T15:10:18;12.90;;;8.17;;
2620;SDS011;1320;48.128;11.592;2022-07-23T15:12:43;11.70;;;8.80;;
2620;SDS011;1320;48.128;11.592;2022-07-23T15:15:09;14.13;;;9.73;;
2620;SDS011;1320;48.128;11.592;2022-07-23T15:17:35;12.83;;;9.60;;
2620;SDS011;1320;48.128;11.592;2022-07-23T15:20:00;12.67;;;11.13;;
2620;SDS011;1320;48.128;11.592;2022-07-23T15:22:26;12.03;;;8.87;;
2620;SDS011;1320;48.128;11.592;2022-07-23T15:24:53;12.50;;;9.80;;
2620;SDS011;1320;48.128;11.592;2022-07-23T15:27:18;14.27;;;10.37;;
2620;SDS011;1320;48.128;11.592;2022-07-23T15:29:44;13.93;;;10.00;;
2620;SDS011;1320;48.128;11.592;2022-07-23T15:32:10;13.53;;;10.17;;
2620;SDS011;1320;48.128;11.592;2022-07-23T15:34:37;12.87;;;9.07;;
2620;SDS011;1320;48.128;11.592;2022-07-23T15:37:03;11.93;;;9.30;;
2620;SDS011;1320;48.128;11.592;2022-07-23T15:39:31;12.30;;;10.50;;
2620;SDS011;1320;48.128;11.592;2022-07-23T15:42:00;13.20;;;10.07;;
2620;SDS011;1320;48.128;11.592;2022-07-23T15:44:26;11.90;;;9.13;;
2620;SDS011;1320;48.128;11.592;2022-07-23T15:46:53;17.70;;;10.77;;
2620;SDS011;1320;48.128;11.592;2022-07-23T15:49:18;13.63;;;10.80;;
2620;SDS011;1320;48.128;11.592;2022-07-23T15:51:44;9.83;;;8.20;;
2620;SDS011;1320;48.128;11.592;2022-07-23T15:54:10;11.97;;;9.10;;